Time;durP1;ratioP1;P1;durP2;ratioP2;P2;SDS_P1;SDS_P2;PMS_P1;PMS_P2;Temp;Humidity;BMP_temperature;BMP_pressure;BME280_temperature;BME280_humidity;BME280_pressure;Samples;Min_cycle;Max_cycle;Signal;HPM_P1;HPM_P2
2021/11/24 00:02:16;;;;;;;14.55;8.13;;;6.70;99.90;;;;;;6155124;23;20460;-79
2021/11/24 00:04:42;;;;;;;15.00;7.97;;;6.70;99.90;;;;;;6156038;23;20020;-80
2021/11/24 00:07:08;;;;;;;13.20;7.32;;;6.70;99.90;;;;;;6181634;23;20013;-80
2021/11/24 00:09:33;;;;;;;13.32;7.35;;;6.70;99.90;;;;;;6180212;23;20017;-80
2021/11/24 00:11:59;;;;;;;13.70;6.68;;;6.70;99.90;;;;;;6181470;23;20070;-81
2021/11/24 00:14:25;;;;;;;12.60;7.07;;;6.70;99.90;;;;;;6180446;23;20024;-80
2021/11/24 00:16:50;;;;;;;11.18;6.35;;;6.70;99.90;;;;;;6179694;23;20017;-81
2021/11/24 00:19:16;;;;;;;12.23;7.00;;;6.80;99.90;;;;;;6153250;23;20013;-79
2021/11/24 00:21:42;;;;;;;14.52;7.07;;;6.80;99.90;;;;;;6181718;23;20017;-80
2021/11/24 00:24:08;;;;;;;15.00;7.13;;;6.80;99.90;;;;;;6179572;23;20027;-81
2021/11/24 00:26:33;;;;;;;11.18;7.25;;;6.80;99.90;;;;;;6180807;23;20290;-80
2021/11/24 00:28:59;;;;;;;11.27;6.78;;;6.80;99.90;;;;;;6157155;23;20052;-81
2021/11/24 00:31:27;;;;;;;11.38;7.05;;;6.80;99.90;;;;;;6154620;23;20051;-80
2021/11/24 00:33:53;;;;;;;10.57;6.55;;;6.90;99.90;;;;;;6156077;23;20397;-81
2021/11/24 00:36:19;;;;;;;7.25;6.10;;;6.80;99.90;;;;;;6155784;23;20013;-80
2021/11/24 00:38:44;;;;;;;11.43;6.50;;;6.80;99.90;;;;;;6156313;23;20017;-80
2021/11/24 00:41:10;;;;;;;9.63;6.65;;;7.00;99.90;;;;;;6181146;23;20040;-79
2021/11/24 00:43:36;;;;;;;14.05;7.03;;;6.90;99.90;;;;;;6181605;23;20017;-78
2021/11/24 00:46:02;;;;;;;14.07;6.95;;;6.90;99.90;;;;;;6179795;23;20357;-79
2021/11/24 00:48:27;;;;;;;18.00;6.97;;;6.90;99.90;;;;;;6180754;23;20012;-79
2021/11/24 00:50:53;;;;;;;14.13;6.80;;;7.00;99.90;;;;;;6155546;23;20329;-79
2021/11/24 00:53:19;;;;;;;9.00;6.28;;;6.90;99.90;;;;;;6181215;23;20478;-79
2021/11/24 00:55:45;;;;;;;7.85;5.95;;;6.90;99.90;;;;;;6180648;23;20051;-80
2021/11/24 00:58:10;;;;;;;12.50;6.82;;;6.90;99.90;;;;;;6155651;23;20016;-80
2021/11/24 01:00:36;;;;;;;13.23;6.32;;;6.90;99.90;;;;;;6155981;23;20024;-80
2021/11/24 01:03:02;;;;;;;10.65;5.72;;;6.90;99.90;;;;;;6180924;23;20051;-79
2021/11/24 01:05:29;;;;;;;11.02;5.75;;;6.90;99.90;;;;;;6176866;23;20029;-81
2021/11/24 01:07:55;;;;;;;11.10;5.60;;;6.90;99.90;;;;;;6126799;23;20346;-79
2021/11/24 01:10:20;;;;;;;10.50;5.07;;;7.00;99.90;;;;;;6102719;23;20021;-80
2021/11/24 01:12:47;;;;;;;15.02;5.95;;;7.00;99.90;;;;;;6102666;23;20100;-80
2021/11/24 01:15:14;;;;;;;19.10;6.15;;;7.00;99.90;;;;;;6102792;23;20014;-79
2021/11/24 01:17:40;;;;;;;9.10;5.45;;;6.90;99.90;;;;;;6126553;23;20049;-80
2021/11/24 01:20:07;;;;;;;6.70;4.43;;;7.00;99.90;;;;;;6123636;23;20473;-81
2021/11/24 01:22:33;;;;;;;10.73;4.20;;;7.00;99.90;;;;;;6127129;23;20056;-80
2021/11/24 01:24:58;;;;;;;7.70;4.70;;;7.00;99.90;;;;;;6125622;23;20080;-80
2021/11/24 01:27:24;;;;;;;9.20;4.32;;;7.00;99.90;;;;;;6126544;23;20021;-80
2021/11/24 01:29:50;;;;;;;7.82;4.80;;;7.00;99.90;;;;;;6127552;23;20029;-79
2021/11/24 01:32:16;;;;;;;8.13;3.88;;;7.00;99.90;;;;;;6125121;23;20009;-80
2021/11/24 01:34:42;;;;;;;11.85;4.40;;;7.00;99.90;;;;;;6100667;23;20013;-80
2021/11/24 01:37:07;;;;;;;8.48;4.28;;;7.00;99.90;;;;;;6126464;23;20248;-80
2021/11/24 01:39:33;;;;;;;9.52;4.38;;;7.10;99.90;;;;;;6126424;23;20048;-80
2021/11/24 01:41:59;;;;;;;7.30;4.32;;;7.00;99.90;;;;;;6103386;23;20036;-81
2021/11/24 01:44:27;;;;;;;7.28;4.28;;;7.00;99.90;;;;;;6102530;23;20024;-81
2021/11/24 01:46:56;;;;;;;6.70;3.88;;;7.00;99.90;;;;;;6101637;23;20013;-81
2021/11/24 01:49:22;;;;;;;8.23;3.97;;;7.00;99.90;;;;;;6125328;23;20022;-81
2021/11/24 01:51:49;;;;;;;6.32;3.50;;;7.00;99.90;;;;;;6126512;23;20010;-79
2021/11/24 01:54:16;;;;;;;7.43;3.47;;;6.90;99.90;;;;;;6125826;23;20367;-79
2021/11/24 01:56:42;;;;;;;6.55;3.53;;;7.00;99.90;;;;;;6101424;23;20097;-81
2021/11/24 01:59:10;;;;;;;5.47;3.20;;;7.00;99.90;;;;;;6126171;23;20021;-81
2021/11/24 02:01:36;;;;;;;7.68;2.83;;;7.00;99.90;;;;;;6126474;23;20009;-81
2021/11/24 02:04:02;;;;;;;8.50;3.72;;;7.00;99.90;;;;;;6126287;23;20039;-80
2021/11/24 02:06:28;;;;;;;5.05;2.78;;;7.00;99.90;;;;;;6154696;23;20107;-80
2021/11/24 02:08:54;;;;;;;4.95;2.88;;;7.00;99.90;;;;;;6156743;23;20021;-81
2021/11/24 02:11:19;;;;;;;7.25;3.38;;;7.00;99.90;;;;;;6180415;23;20063;-79
2021/11/24 02:13:45;;;;;;;5.75;3.25;;;7.00;99.90;;;;;;6155798;23;20024;-79
2021/11/24 02:16:11;;;;;;;6.00;3.10;;;6.90;99.90;;;;;;6179886;23;20227;-80
2021/11/24 02:18:36;;;;;;;6.47;3.40;;;7.00;99.90;;;;;;6153047;23;20088;-80
2021/11/24 02:21:02;;;;;;;6.10;3.22;;;6.90;99.90;;;;;;6179590;23;20051;-80
2021/11/24 02:23:28;;;;;;;8.57;3.08;;;6.90;99.90;;;;;;6179427;23;20021;-80
2021/11/24 02:25:53;;;;;;;6.10;2.88;;;7.00;99.90;;;;;;6179785;23;20396;-80
2021/11/24 02:28:19;;;;;;;6.75;2.80;;;7.00;99.90;;;;;;6180164;23;20012;-81
2021/11/24 02:30:45;;;;;;;8.07;3.00;;;7.00;99.90;;;;;;6181411;23;20013;-80
2021/11/24 02:33:10;;;;;;;4.88;2.70;;;6.90;99.90;;;;;;6155406;23;20346;-82
2021/11/24 02:35:36;;;;;;;8.32;2.58;;;7.00;99.90;;;;;;6180772;23;20016;-81
2021/11/24 02:38:06;;;;;;;3.72;2.60;;;7.00;99.90;;;;;;6180016;23;20005;-80
2021/11/24 02:40:33;;;;;;;6.57;2.85;;;6.90;99.90;;;;;;6181157;23;20017;-80
2021/11/24 02:43:00;;;;;;;6.22;2.47;;;7.00;99.90;;;;;;6182944;23;20013;-79
2021/11/24 02:45:27;;;;;;;8.75;2.33;;;7.00;99.90;;;;;;6182228;23;20107;-80
2021/11/24 02:47:53;;;;;;;10.05;2.40;;;7.00;99.90;;;;;;6181446;23;20017;-79
2021/11/24 02:50:19;;;;;;;4.95;2.38;;;7.00;99.90;;;;;;6154471;23;20009;-80
2021/11/24 02:52:45;;;;;;;7.50;2.28;;;7.00;99.90;;;;;;6183168;23;20067;-80
2021/11/24 02:55:12;;;;;;;4.25;2.30;;;7.00;99.90;;;;;;6156053;23;20009;-81
2021/11/24 02:57:41;;;;;;;6.68;2.42;;;7.00;99.90;;;;;;6181294;23;20527;-80
2021/11/24 03:00:13;;;;;;;4.65;2.20;;;7.10;99.90;;;;;;6158243;23;20013;-79
2021/11/24 03:02:39;;;;;;;3.35;2.13;;;7.00;99.90;;;;;;6181666;23;20317;-81
2021/11/24 03:05:05;;;;;;;6.60;2.00;;;7.00;99.90;;;;;;6182912;23;20088;-79
2021/11/24 03:07:31;;;;;;;7.13;2.30;;;7.00;99.90;;;;;;6182114;23;20040;-81
2021/11/24 03:09:56;;;;;;;7.07;2.20;;;7.00;99.90;;;;;;6182892;23;20029;-79
2021/11/24 03:12:22;;;;;;;5.95;2.00;;;7.00;99.90;;;;;;6183124;23;20084;-79
2021/11/24 03:14:49;;;;;;;5.20;2.00;;;7.00;99.90;;;;;;6181954;23;20019;-80
2021/11/24 03:17:15;;;;;;;5.50;1.88;;;7.00;99.90;;;;;;6183535;23;20075;-81
2021/11/24 03:19:41;;;;;;;5.10;1.70;;;7.00;99.90;;;;;;6157430;23;20017;-79
2021/11/24 03:22:06;;;;;;;2.85;1.73;;;7.00;99.90;;;;;;6181847;23;20012;-79
2021/11/24 03:24:32;;;;;;;3.63;1.98;;;7.00;99.90;;;;;;6180773;23;20021;-79
2021/11/24 03:26:58;;;;;;;8.00;1.85;;;7.00;99.90;;;;;;6180538;23;20472;-79
2021/11/24 03:29:23;;;;;;;3.70;1.65;;;7.00;99.90;;;;;;6181318;23;20021;-81
2021/11/24 03:31:49;;;;;;;7.90;1.85;;;7.00;99.90;;;;;;6156717;23;20426;-80
2021/11/24 03:34:14;;;;;;;3.53;2.08;;;7.00;99.90;;;;;;6155812;23;20013;-79
2021/11/24 03:36:40;;;;;;;6.88;2.00;;;7.00;99.90;;;;;;6156790;23;20368;-79
2021/11/24 03:39:06;;;;;;;10.85;2.42;;;7.00;99.90;;;;;;6182161;23;20009;-80
2021/11/24 03:41:32;;;;;;;3.25;2.03;;;7.00;99.90;;;;;;6157235;23;20048;-78
2021/11/24 03:43:58;;;;;;;4.05;1.70;;;7.00;99.90;;;;;;6156702;23;20483;-78
2021/11/24 03:46:24;;;;;;;7.72;2.10;;;7.00;99.90;;;;;;6180658;23;20048;-79
2021/11/24 03:48:50;;;;;;;5.53;2.25;;;7.00;99.90;;;;;;6180979;23;20024;-80
2021/11/24 03:51:16;;;;;;;4.57;2.15;;;7.00;99.90;;;;;;6181535;23;20017;-77
2021/11/24 03:53:42;;;;;;;7.68;1.90;;;6.90;99.90;;;;;;6180369;23;20120;-79
2021/11/24 03:56:09;;;;;;;5.57;2.03;;;7.00;99.90;;;;;;6181462;23;20020;-81
2021/11/24 03:58:35;;;;;;;5.00;1.90;;;7.00;99.90;;;;;;6182048;23;20013;-79
2021/11/24 04:01:02;;;;;;;9.73;2.28;;;6.90;99.90;;;;;;6181415;23;20017;-80
2021/11/24 04:03:28;;;;;;;5.53;1.92;;;7.00;99.90;;;;;;6181426;23;20020;-80
2021/11/24 04:05:54;;;;;;;6.07;1.88;;;7.30;99.90;;;;;;6182321;23;20017;-80
2021/11/24 04:08:20;;;;;;;4.47;2.05;;;6.90;99.90;;;;;;6156467;23;20117;-78
2021/11/24 04:10:47;;;;;;;4.05;2.10;;;6.90;99.90;;;;;;6182732;23;20009;-79
2021/11/24 04:13:13;;;;;;;2.38;2.00;;;6.90;99.90;;;;;;6182046;23;20091;-79
2021/11/24 04:15:39;;;;;;;3.47;2.00;;;6.90;99.90;;;;;;6182896;23;20044;-80
2021/11/24 04:18:04;;;;;;;5.78;2.20;;;6.90;99.90;;;;;;6181284;23;20013;-80
2021/11/24 04:20:30;;;;;;;4.10;2.50;;;6.90;99.90;;;;;;6157923;23;20031;-79
2021/11/24 04:22:56;;;;;;;8.88;2.13;;;7.00;99.90;;;;;;6181611;23;20032;-78
2021/11/24 04:25:22;;;;;;;5.03;1.95;;;7.00;99.90;;;;;;6158158;23;20055;-81
2021/11/24 04:27:48;;;;;;;10.45;2.20;;;7.00;99.90;;;;;;6181996;23;20009;-81
2021/11/24 04:30:15;;;;;;;5.28;2.78;;;7.00;99.90;;;;;;6156725;23;20013;-79
2021/11/24 04:32:41;;;;;;;5.75;2.17;;;7.00;99.90;;;;;;6181877;23;20070;-79
2021/11/24 04:35:08;;;;;;;8.30;2.40;;;7.00;99.90;;;;;;6181500;23;20363;-79
2021/11/24 04:37:34;;;;;;;4.75;2.35;;;7.00;99.90;;;;;;6182030;23;20337;-80
2021/11/24 04:39:59;;;;;;;4.82;2.20;;;7.00;99.90;;;;;;6157348;23;20013;-80
2021/11/24 04:42:25;;;;;;;10.25;2.13;;;7.00;99.90;;;;;;6182002;23;20021;-79
2021/11/24 04:44:51;;;;;;;5.35;2.03;;;7.00;99.90;;;;;;6182168;23;20619;-80
2021/11/24 04:47:17;;;;;;;4.55;2.03;;;7.00;99.90;;;;;;6181706;23;20013;-79
2021/11/24 04:49:42;;;;;;;6.03;2.03;;;7.00;99.90;;;;;;6181589;23;20012;-78
2021/11/24 04:52:08;;;;;;;5.32;2.13;;;7.00;99.90;;;;;;6181970;23;20361;-78
2021/11/24 04:54:34;;;;;;;8.43;2.35;;;7.50;99.90;;;;;;6181094;23;20077;-80
2021/11/24 04:56:59;;;;;;;9.13;2.10;;;7.00;99.90;;;;;;6157265;23;20016;-80
2021/11/24 04:59:26;;;;;;;7.93;2.38;;;7.00;99.90;;;;;;6181653;23;20055;-80
2021/11/24 05:01:51;;;;;;;4.82;2.20;;;7.00;99.90;;;;;;6156564;23;20091;-78
2021/11/24 05:04:21;;;;;;;4.32;2.05;;;7.00;99.90;;;;;;6181799;23;20032;-80
2021/11/24 05:06:47;;;;;;;5.80;2.10;;;7.00;99.90;;;;;;6156758;23;20029;-80
2021/11/24 05:09:13;;;;;;;6.75;2.30;;;7.00;99.90;;;;;;6157376;23;20071;-79
2021/11/24 05:11:40;;;;;;;4.93;2.47;;;7.00;99.90;;;;;;6182121;23;20345;-80
2021/11/24 05:14:08;;;;;;;5.68;2.20;;;7.00;99.90;;;;;;6157253;23;20059;-79
2021/11/24 05:16:35;;;;;;;9.38;2.33;;;7.00;99.90;;;;;;6181664;23;20100;-78
2021/11/24 05:19:02;;;;;;;3.65;2.35;;;7.00;99.90;;;;;;6181671;23;20013;-78
2021/11/24 05:21:32;;;;;;;4.78;2.30;;;7.00;99.90;;;;;;6181665;23;20013;-80
2021/11/24 05:23:59;;;;;;;4.20;2.05;;;7.00;99.90;;;;;;6181241;23;20049;-79
2021/11/24 05:26:29;;;;;;;6.03;1.95;;;7.00;99.90;;;;;;6183905;23;20040;-77
2021/11/24 05:28:55;;;;;;;4.05;2.08;;;7.00;99.90;;;;;;6181488;23;20071;-79
2021/11/24 05:31:21;;;;;;;4.78;2.20;;;7.00;99.90;;;;;;6181434;23;20017;-78
2021/11/24 05:33:47;;;;;;;3.20;2.08;;;7.00;99.90;;;;;;6181305;23;20017;-80
2021/11/24 05:36:14;;;;;;;5.22;2.08;;;7.00;99.90;;;;;;6183798;23;20013;-78
2021/11/24 05:38:39;;;;;;;6.82;2.00;;;7.10;99.90;;;;;;6182103;23;20009;-80
2021/11/24 05:41:05;;;;;;;7.78;2.00;;;7.00;99.90;;;;;;6182183;23;20315;-78
2021/11/24 05:43:32;;;;;;;6.68;2.10;;;7.00;99.90;;;;;;6181756;23;20028;-78
2021/11/24 05:48:24;;;;;;;4.15;2.08;;;6.90;99.90;;;;;;6180514;23;20028;-78
2021/11/24 05:50:51;;;;;;;8.05;2.20;;;7.00;99.90;;;;;;6155997;23;20040;-80
2021/11/24 05:53:19;;;;;;;5.80;2.00;;;7.00;99.90;;;;;;6157181;23;20453;-79
2021/11/24 05:55:47;;;;;;;7.78;1.90;;;6.90;99.90;;;;;;6182153;23;20032;-77
2021/11/24 05:58:14;;;;;;;6.30;2.10;;;7.00;99.90;;;;;;6180884;23;20013;-77
2021/11/24 06:00:40;;;;;;;4.75;2.00;;;7.00;99.90;;;;;;6181058;23;20020;-80
2021/11/24 06:03:06;;;;;;;6.10;1.98;;;7.00;99.90;;;;;;6181833;23;20084;-77
2021/11/24 06:05:32;;;;;;;10.00;2.30;;;7.00;99.90;;;;;;6151646;23;20018;-78
2021/11/24 06:07:58;;;;;;;5.13;2.20;;;7.00;99.90;;;;;;6102416;23;20051;-79
2021/11/24 06:10:24;;;;;;;4.55;1.90;;;7.00;99.90;;;;;;6126302;23;20096;-78
2021/11/24 06:12:50;;;;;;;7.22;1.95;;;7.00;99.90;;;;;;6102631;23;20118;-79
2021/11/24 06:15:16;;;;;;;8.50;2.30;;;7.00;99.90;;;;;;6127561;23;20415;-77
2021/11/24 06:17:43;;;;;;;3.45;2.08;;;7.00;99.90;;;;;;6102699;23;20013;-77
2021/11/24 06:20:11;;;;;;;5.25;1.73;;;7.00;99.90;;;;;;6103218;23;20382;-76
2021/11/24 06:22:38;;;;;;;3.08;1.90;;;6.90;99.90;;;;;;6129634;23;20342;-76
2021/11/24 06:25:05;;;;;;;5.35;1.80;;;7.00;99.90;;;;;;6129121;23;20021;-77
2021/11/24 06:27:31;;;;;;;7.35;2.05;;;6.90;99.90;;;;;;6105302;23;20131;-78
2021/11/24 06:29:57;;;;;;;3.58;1.75;;;6.90;99.90;;;;;;6105370;23;20067;-79
2021/11/24 06:32:23;;;;;;;3.63;1.75;;;7.00;99.90;;;;;;6127073;23;20024;-78
2021/11/24 06:34:48;;;;;;;3.90;1.65;;;7.00;99.90;;;;;;6127940;23;20430;-79
2021/11/24 06:37:14;;;;;;;5.88;1.85;;;7.00;99.90;;;;;;6127961;23;20009;-79
2021/11/24 06:39:40;;;;;;;4.25;1.73;;;7.00;99.90;;;;;;6129207;23;20009;-77
2021/11/24 06:42:06;;;;;;;3.20;1.70;;;6.90;99.90;;;;;;6128887;23;20018;-76
2021/11/24 06:44:31;;;;;;;5.28;1.80;;;6.90;99.90;;;;;;6128367;23;20017;-75
2021/11/24 06:46:57;;;;;;;3.40;1.83;;;7.00;99.90;;;;;;6127955;23;20032;-75
2021/11/24 06:49:23;;;;;;;8.55;2.00;;;6.90;99.90;;;;;;6103657;23;20028;-77
2021/11/24 06:51:49;;;;;;;5.00;1.75;;;7.00;99.90;;;;;;6128294;23;20018;-77
2021/11/24 06:54:17;;;;;;;5.28;2.17;;;6.90;99.90;;;;;;6102857;23;20089;-78
2021/11/24 06:56:45;;;;;;;5.18;2.17;;;7.00;99.90;;;;;;6127354;23;20013;-77
2021/11/24 06:59:11;;;;;;;10.02;2.28;;;7.00;99.90;;;;;;6128020;23;20659;-77
2021/11/24 07:01:40;;;;;;;4.90;1.95;;;6.90;99.90;;;;;;6127511;23;20017;-79
2021/11/24 07:04:05;;;;;;;4.85;2.00;;;6.90;99.90;;;;;;6126301;23;20014;-77
2021/11/24 07:06:32;;;;;;;5.70;2.15;;;6.90;99.90;;;;;;6155938;23;20031;-79
2021/11/24 07:08:58;;;;;;;3.53;1.88;;;6.90;99.90;;;;;;6182035;23;20039;-81
2021/11/24 07:11:28;;;;;;;3.85;1.73;;;6.90;99.90;;;;;;6181663;23;20021;-79
2021/11/24 07:13:54;;;;;;;4.80;1.73;;;6.90;99.90;;;;;;6157681;23;20056;-80
2021/11/24 07:16:20;;;;;;;6.47;2.10;;;6.90;99.90;;;;;;6181587;23;20041;-78
2021/11/24 07:18:46;;;;;;;3.58;1.73;;;6.90;99.90;;;;;;6155178;23;20119;-79
2021/11/24 07:21:12;;;;;;;3.90;1.75;;;7.00;99.90;;;;;;6181285;23;20479;-79
2021/11/24 07:23:38;;;;;;;5.32;1.80;;;7.00;99.90;;;;;;6181022;23;20017;-78
2021/11/24 07:26:03;;;;;;;2.92;1.48;;;7.00;99.90;;;;;;6179961;23;20017;-78
2021/11/24 07:28:30;;;;;;;3.83;1.83;;;7.00;99.90;;;;;;6155430;23;20017;-79
2021/11/24 07:30:56;;;;;;;7.93;2.00;;;7.00;99.90;;;;;;6154458;23;20020;-79
2021/11/24 07:33:22;;;;;;;5.38;2.00;;;7.00;99.90;;;;;;6155177;23;20017;-79
2021/11/24 07:35:47;;;;;;;4.95;1.90;;;7.00;99.90;;;;;;6179871;23;20016;-80
2021/11/24 07:38:13;;;;;;;7.38;1.70;;;7.00;99.90;;;;;;6180128;23;20095;-78
2021/11/24 07:40:40;;;;;;;6.47;1.83;;;7.00;99.90;;;;;;6155739;23;20441;-79
2021/11/24 07:43:06;;;;;;;5.38;2.00;;;7.00;99.90;;;;;;6181005;23;20104;-78
2021/11/24 07:45:32;;;;;;;3.17;1.77;;;7.10;99.90;;;;;;6181905;23;20044;-79
2021/11/24 07:47:57;;;;;;;5.88;1.60;;;7.20;99.90;;;;;;6181450;23;20013;-78
2021/11/24 07:50:23;;;;;;;8.13;1.63;;;7.10;99.90;;;;;;6157586;23;20017;-77
2021/11/24 07:52:49;;;;;;;8.18;2.20;;;7.10;99.90;;;;;;6181721;23;20040;-77
2021/11/24 07:55:15;;;;;;;7.55;1.58;;;7.10;99.90;;;;;;6182864;23;20020;-78
2021/11/24 07:57:41;;;;;;;6.15;1.80;;;7.10;99.90;;;;;;6182808;23;20013;-77
2021/11/24 08:00:07;;;;;;;3.60;1.80;;;7.10;99.90;;;;;;6157660;23;20017;-77
2021/11/24 08:02:33;;;;;;;4.03;1.85;;;7.10;99.90;;;;;;6181956;23;20017;-77
2021/11/24 08:04:58;;;;;;;3.60;1.70;;;7.10;99.90;;;;;;6155012;23;20013;-78
2021/11/24 08:07:24;;;;;;;3.10;1.70;;;7.10;99.90;;;;;;6181845;23;20021;-78
2021/11/24 08:09:51;;;;;;;6.55;1.95;;;7.10;99.90;;;;;;6182541;23;20373;-78
2021/11/24 08:12:17;;;;;;;5.20;1.88;;;7.10;99.90;;;;;;6156333;23;20017;-78
2021/11/24 08:14:43;;;;;;;4.95;1.70;;;7.10;99.90;;;;;;6155942;23;20016;-81
2021/11/24 08:17:08;;;;;;;6.32;2.00;;;7.10;99.90;;;;;;6181491;23;20390;-79
2021/11/24 08:19:34;;;;;;;6.90;2.17;;;7.10;99.90;;;;;;6156508;23;20333;-77
2021/11/24 08:21:59;;;;;;;3.75;1.92;;;7.30;99.90;;;;;;6182082;23;20337;-77
2021/11/24 08:24:26;;;;;;;3.42;1.60;;;7.10;99.90;;;;;;6181344;23;20028;-78
2021/11/24 08:26:53;;;;;;;4.38;1.88;;;7.20;99.90;;;;;;6180136;23;20409;-81
2021/11/24 08:29:19;;;;;;;3.65;1.65;;;7.20;99.90;;;;;;6181489;23;20468;-79
2021/11/24 08:31:45;;;;;;;4.32;1.60;;;7.20;99.90;;;;;;6180609;23;20021;-78
2021/11/24 08:34:12;;;;;;;2.55;1.40;;;7.30;99.90;;;;;;6180439;23;20124;-78
2021/11/24 08:36:39;;;;;;;4.07;1.42;;;7.20;99.90;;;;;;6182052;23;20009;-78
2021/11/24 08:39:05;;;;;;;3.03;1.27;;;7.20;99.90;;;;;;6182548;23;20021;-76
2021/11/24 08:41:31;;;;;;;4.53;1.33;;;7.20;99.90;;;;;;6182640;23;20025;-76
2021/11/24 08:43:57;;;;;;;8.73;1.08;;;7.30;99.90;;;;;;6182222;23;20341;-77
2021/11/24 08:46:23;;;;;;;2.00;1.20;;;7.40;99.90;;;;;;6179917;23;20024;-77
2021/11/24 08:48:49;;;;;;;5.90;1.35;;;7.30;99.90;;;;;;6179618;23;20055;-77
2021/11/24 08:51:14;;;;;;;3.80;1.40;;;7.30;99.90;;;;;;6155400;23;20460;-78
2021/11/24 08:53:40;;;;;;;5.72;1.55;;;7.30;99.90;;;;;;6181817;23;20048;-78
2021/11/24 08:56:06;;;;;;;5.88;1.27;;;7.40;99.90;;;;;;6131850;23;20341;-79
2021/11/24 08:58:32;;;;;;;4.40;1.30;;;7.30;99.90;;;;;;6181683;23;20009;-79
2021/11/24 09:00:58;;;;;;;5.20;1.40;;;7.40;99.90;;;;;;6181069;23;20468;-80
2021/11/24 09:03:23;;;;;;;4.40;1.33;;;7.70;99.90;;;;;;6180293;23;20519;-80
2021/11/24 09:05:49;;;;;;;6.47;1.70;;;7.40;99.90;;;;;;6179400;23;20132;-80
2021/11/24 09:08:15;;;;;;;4.32;1.20;;;7.40;99.90;;;;;;6179404;23;20156;-79
2021/11/24 09:10:42;;;;;;;4.57;1.40;;;7.40;99.90;;;;;;6181516;23;20017;-80
2021/11/24 09:13:08;;;;;;;5.65;1.60;;;7.40;99.90;;;;;;6181348;23;20017;-80
2021/11/24 09:15:34;;;;;;;7.43;1.60;;;7.50;99.90;;;;;;6181973;23;20083;-81
2021/11/24 09:18:00;;;;;;;2.47;1.40;;;7.80;99.90;;;;;;6155188;23;20013;-80
2021/11/24 09:20:26;;;;;;;4.43;1.50;;;7.70;99.90;;;;;;6183119;23;20044;-79
2021/11/24 09:22:52;;;;;;;7.03;1.70;;;7.60;99.90;;;;;;6155531;23;20021;-79
2021/11/24 09:25:21;;;;;;;6.57;1.50;;;7.60;99.90;;;;;;6181884;23;20025;-78
2021/11/24 09:28:06;;;;;;;4.38;1.50;;;7.60;99.90;;;;;;6182104;23;20013;-79
2021/11/24 09:30:32;;;;;;;6.32;1.73;;;7.70;99.90;;;;;;6181506;23;20027;-80
2021/11/24 09:32:58;;;;;;;3.85;1.70;;;7.60;99.90;;;;;;6179396;23;20100;-79
2021/11/24 09:35:24;;;;;;;7.65;1.77;;;7.70;99.90;;;;;;6157895;23;20020;-78
2021/11/24 09:37:50;;;;;;;10.77;1.70;;;7.70;99.90;;;;;;6181758;23;20063;-79
2021/11/24 09:40:17;;;;;;;2.65;1.45;;;7.60;99.90;;;;;;6157715;23;20314;-78
2021/11/24 09:42:45;;;;;;;3.88;1.52;;;7.70;99.90;;;;;;6181838;23;20120;-78
2021/11/24 09:45:13;;;;;;;4.82;1.60;;;7.60;99.90;;;;;;6183547;23;20013;-77
2021/11/24 09:47:45;;;;;;;6.28;1.40;;;7.70;99.90;;;;;;6181687;23;20024;-79
2021/11/24 09:50:10;;;;;;;5.13;1.65;;;7.70;99.90;;;;;;6181829;23;20012;-79
2021/11/24 09:52:36;;;;;;;6.47;1.80;;;7.70;99.90;;;;;;6181482;23;20067;-79
2021/11/24 09:55:05;;;;;;;9.95;1.98;;;7.80;99.90;;;;;;6183674;23;20009;-80
2021/11/24 09:57:31;;;;;;;4.72;1.60;;;7.80;99.90;;;;;;6158817;23;20013;-80
2021/11/24 09:59:57;;;;;;;5.07;1.58;;;7.80;99.90;;;;;;6160504;23;20024;-80
2021/11/24 10:02:23;;;;;;;7.18;1.70;;;7.80;99.90;;;;;;6158712;23;20020;-80
2021/11/24 10:04:49;;;;;;;2.72;1.50;;;7.80;99.90;;;;;;6158632;23;20341;-80
2021/11/24 10:07:18;;;;;;;5.47;1.73;;;7.80;99.90;;;;;;6184963;23;20032;-80
2021/11/24 10:09:44;;;;;;;7.22;1.70;;;7.90;99.90;;;;;;6185449;23;20333;-80
2021/11/24 10:12:11;;;;;;;5.05;1.60;;;7.90;99.90;;;;;;6184159;23;20088;-81
2021/11/24 10:14:39;;;;;;;3.50;1.73;;;7.90;99.90;;;;;;6184561;23;20315;-81
2021/11/24 10:17:16;;;;;;;4.00;1.55;;;8.00;99.90;;;;;;6183780;23;20088;-81
2021/11/24 10:19:58;;;;;;;5.78;1.90;;;8.10;99.90;;;;;;6184899;23;20357;-81
2021/11/24 10:22:24;;;;;;;4.13;1.70;;;8.10;99.90;;;;;;6185366;23;20461;-81
2021/11/24 10:25:10;;;;;;;3.55;2.03;;;8.00;99.90;;;;;;6184875;23;20119;-81
2021/11/24 10:27:44;;;;;;;2.92;1.88;;;8.00;99.90;;;;;;6185568;23;20079;-81
2021/11/24 10:30:21;;;;;;;4.35;1.50;;;8.10;99.90;;;;;;6184338;23;20013;-77
2021/11/24 10:32:47;;;;;;;4.70;1.67;;;8.10;99.90;;;;;;6184304;23;20035;-77
2021/11/24 10:35:13;;;;;;;5.60;2.03;;;8.10;99.90;;;;;;6184553;23;20044;-77
2021/11/24 10:37:39;;;;;;;6.03;1.67;;;8.10;99.90;;;;;;6160442;23;20093;-77
2021/11/24 10:40:09;;;;;;;5.60;2.00;;;8.20;99.90;;;;;;6159908;23;20395;-77
2021/11/24 10:42:36;;;;;;;6.55;1.75;;;8.10;99.90;;;;;;6159759;23;20405;-77
2021/11/24 10:45:13;;;;;;;3.80;1.70;;;8.20;99.90;;;;;;6156673;23;20497;-76
2021/11/24 10:47:57;;;;;;;4.00;1.70;;;8.20;99.90;;;;;;6207882;23;20021;-80
2021/11/24 10:50:26;;;;;;;4.38;1.90;;;8.20;99.90;;;;;;6185105;23;20293;-80
2021/11/24 10:52:53;;;;;;;6.22;1.90;;;8.20;99.90;;;;;;6184529;23;20048;-80
2021/11/24 10:55:28;;;;;;;2.75;1.70;;;8.20;99.90;;;;;;6183762;23;20411;-81
2021/11/24 10:58:07;;;;;;;6.00;1.70;;;8.20;99.90;;;;;;6158987;23;20045;-80
2021/11/24 11:00:35;;;;;;;3.05;1.80;;;8.20;99.90;;;;;;6184870;23;20441;-81
2021/11/24 11:03:01;;;;;;;2.95;1.80;;;8.20;99.90;;;;;;6157086;23;20429;-80
2021/11/24 11:05:29;;;;;;;6.93;1.98;;;8.20;99.90;;;;;;6179968;23;20013;-81
2021/11/24 11:07:58;;;;;;;5.82;1.55;;;8.20;99.90;;;;;;6128847;23;20048;-81
2021/11/24 11:10:27;;;;;;;9.45;2.33;;;8.30;99.90;;;;;;6104094;23;20009;-80
2021/11/24 11:13:02;;;;;;;3.95;1.88;;;8.30;99.90;;;;;;6103519;23;20426;-80
2021/11/24 11:15:39;;;;;;;11.98;2.35;;;8.30;99.90;;;;;;6128574;23;20730;-80
2021/11/24 11:18:29;;;;;;;5.78;2.03;;;8.50;99.90;;;;;;6126999;23;20047;-80
2021/11/24 11:20:59;;;;;;;5.82;1.92;;;8.30;99.90;;;;;;6102976;23;20014;-82
2021/11/24 11:23:30;;;;;;;6.18;1.83;;;8.30;99.90;;;;;;6127862;23;20021;-81
2021/11/24 11:25:59;;;;;;;6.20;1.98;;;8.30;99.90;;;;;;6127958;23;20021;-79
2021/11/24 11:28:36;;;;;;;4.80;1.88;;;8.30;99.90;;;;;;6153993;23;20070;-79
2021/11/24 11:31:08;;;;;;;5.70;2.20;;;8.30;99.90;;;;;;6127330;23;20445;-76
2021/11/24 11:33:36;;;;;;;6.18;1.77;;;8.30;99.90;;;;;;6126711;23;20280;-76
2021/11/24 11:36:11;;;;;;;4.72;2.15;;;8.40;99.90;;;;;;6102087;23;20070;-77
2021/11/24 11:38:39;;;;;;;4.25;2.05;;;8.30;99.90;;;;;;6102403;23;20013;-78
2021/11/24 11:41:06;;;;;;;3.45;1.85;;;8.30;99.90;;;;;;6127286;23;20092;-77
2021/11/24 11:43:33;;;;;;;4.25;2.08;;;8.30;99.90;;;;;;6126549;23;20025;-76
2021/11/24 11:46:19;;;;;;;3.90;1.60;;;8.30;99.90;;;;;;6127355;23;20088;-76
2021/11/24 11:48:46;;;;;;;4.28;2.15;;;8.30;99.90;;;;;;6127618;23;20088;-77
2021/11/24 11:51:14;;;;;;;7.53;2.05;;;8.30;99.90;;;;;;6128851;23;20079;-78
2021/11/24 11:53:50;;;;;;;6.38;1.88;;;8.30;99.90;;;;;;6128121;23;20021;-77
2021/11/24 11:56:23;;;;;;;2.10;1.80;;;8.30;99.90;;;;;;6102640;23;20084;-77
2021/11/24 11:59:05;;;;;;;4.43;2.00;;;8.30;99.90;;;;;;6128094;23;20013;-77
2021/11/24 12:01:54;;;;;;;11.95;2.15;;;8.30;99.90;;;;;;6126867;23;20075;-79
2021/11/24 12:04:20;;;;;;;3.60;1.73;;;8.30;99.90;;;;;;6126655;23;20013;-78
2021/11/24 12:06:52;;;;;;;8.27;2.00;;;8.30;99.90;;;;;;6137015;23;20060;-78
2021/11/24 12:09:31;;;;;;;5.00;2.00;;;8.30;99.90;;;;;;6157318;23;20021;-78
2021/11/24 12:12:09;;;;;;;6.68;2.40;;;8.40;99.90;;;;;;6181795;23;20013;-76
2021/11/24 12:14:47;;;;;;;4.00;2.20;;;8.40;99.90;;;;;;6181364;23;20441;-76
2021/11/24 12:17:35;;;;;;;4.95;2.17;;;8.30;99.90;;;;;;6180295;23;20441;-77
2021/11/24 12:20:14;;;;;;;3.38;1.98;;;8.30;99.90;;;;;;6181355;23;20013;-78
2021/11/24 12:22:59;;;;;;;4.82;2.20;;;8.30;99.90;;;;;;6181608;23;20028;-77
2021/11/24 12:27:51;;;;;;;4.25;2.38;;;8.40;99.90;;;;;;6182630;23;20052;-79
2021/11/24 12:30:50;;;;;;;4.40;2.53;;;8.30;99.90;;;;;;6152733;23;20385;-79
2021/11/24 12:33:28;;;;;;;6.38;2.80;;;8.40;99.90;;;;;;6181508;23;20453;-78
2021/11/24 12:36:03;;;;;;;5.18;2.30;;;8.40;99.90;;;;;;6182573;23;20005;-76
2021/11/24 12:38:38;;;;;;;5.88;2.20;;;8.40;99.90;;;;;;6157580;23;20015;-78
2021/11/24 12:41:11;;;;;;;5.68;2.47;;;8.40;99.90;;;;;;6182727;23;20024;-79
2021/11/24 12:43:43;;;;;;;5.28;2.47;;;8.40;99.90;;;;;;6182332;23;20398;-79
2021/11/24 12:46:30;;;;;;;6.50;2.58;;;8.40;99.90;;;;;;6182215;23;20442;-79
2021/11/24 12:49:21;;;;;;;8.43;2.40;;;8.50;99.90;;;;;;6156832;23;20082;-78
2021/11/24 12:51:50;;;;;;;4.07;2.20;;;8.50;99.90;;;;;;6068760;23;20493;-77
2021/11/24 12:54:19;;;;;;;6.70;2.17;;;8.50;99.90;;;;;;6044925;23;20015;-79
2021/11/24 12:56:47;;;;;;;9.90;2.15;;;8.50;99.90;;;;;;6068290;23;20021;-78
2021/11/24 12:59:15;;;;;;;3.67;1.65;;;8.50;99.90;;;;;;6068991;23;20446;-78
2021/11/24 13:01:46;;;;;;;3.92;2.13;;;8.50;99.90;;;;;;6068524;23;20359;-77
2021/11/24 13:04:22;;;;;;;5.40;1.92;;;8.40;99.90;;;;;;6067774;23;20027;-79